createdAt,value
2022-10-11T00:00:43.270Z,26.20
2022-10-11T00:03:09.920Z,20.73
2022-10-11T00:05:36.628Z,25.73
2022-10-11T00:08:05.595Z,19.60
2022-10-11T00:10:35.158Z,21.10
2022-10-11T00:13:01.649Z,22.10
2022-10-11T00:15:28.237Z,30.20
2022-10-11T00:17:54.738Z,16.73
2022-10-11T00:20:21.287Z,19.30
2022-10-11T00:22:49.383Z,20.20
2022-10-11T00:25:16.551Z,29.37
2022-10-11T00:27:43.047Z,17.87
2022-10-11T00:30:10.456Z,23.17
2022-10-11T00:32:38.459Z,24.80
2022-10-11T00:35:06.776Z,17.30
2022-10-11T00:37:38.038Z,14.50
2022-10-11T00:40:07.396Z,15.90
2022-10-11T00:42:33.932Z,19.70
2022-10-11T00:45:31.374Z,22.50
2022-10-11T00:48:05.337Z,18.60
2022-10-11T00:50:34.178Z,15.80
2022-10-11T00:53:04.013Z,14.40
2022-10-11T00:55:35.351Z,22.77
2022-10-11T00:58:01.823Z,20.80
2022-10-11T01:00:28.311Z,28.90
2022-10-11T01:02:55.139Z,18.97
2022-10-11T01:05:30.355Z,25.93
2022-10-11T01:08:01.047Z,27.57
2022-10-11T01:10:27.883Z,27.47
2022-10-11T01:13:30.428Z,20.73
2022-10-11T01:16:09.444Z,19.33
2022-10-11T01:19:31.926Z,24.53
2022-10-11T01:22:35.926Z,13.17
2022-10-11T01:25:19.202Z,20.43
2022-10-11T01:28:15.526Z,21.83
2022-10-11T01:30:42.204Z,35.83
2022-10-11T01:33:23.440Z,14.00
2022-10-11T01:35:49.903Z,17.40
2022-10-11T01:38:33.330Z,30.77
2022-10-11T01:41:04.567Z,21.77
2022-10-11T01:43:32.015Z,19.17
2022-10-11T01:46:00.158Z,11.97
2022-10-11T01:48:26.786Z,13.30
2022-10-11T01:50:56.191Z,18.87
2022-10-11T01:53:50.337Z,17.60
2022-10-11T01:56:43.802Z,29.57
2022-10-11T01:59:28.421Z,13.77
2022-10-11T02:02:08.117Z,16.07
2022-10-11T02:04:49.690Z,19.37
2022-10-11T02:07:25.234Z,20.13
2022-10-11T02:09:55.355Z,15.60
2022-10-11T02:12:46.589Z,24.00
2022-10-11T02:15:13.728Z,13.57
2022-10-11T02:17:44.671Z,11.10
2022-10-11T02:20:14.517Z,16.03
2022-10-11T02:22:43.758Z,22.53
2022-10-11T02:25:13.584Z,13.13
2022-10-11T02:27:41.178Z,13.00
2022-10-11T02:30:09.218Z,11.93
2022-10-11T02:32:38.729Z,19.93
2022-10-11T02:35:05.737Z,27.57
2022-10-11T02:37:50.573Z,26.20
2022-10-11T02:40:43.262Z,26.47
2022-10-11T02:43:18.013Z,15.03
2022-10-11T02:45:54.129Z,14.47
2022-10-11T02:48:21.220Z,20.60
2022-10-11T02:50:47.693Z,16.10
2022-10-11T02:53:14.226Z,19.63
2022-10-11T02:55:40.808Z,28.77
2022-10-11T02:58:07.354Z,12.50
2022-10-11T03:00:33.826Z,17.93
2022-10-11T03:03:00.311Z,25.40
2022-10-11T03:05:26.866Z,17.83
2022-10-11T03:07:53.321Z,18.23
2022-10-11T03:10:19.837Z,24.87
2022-10-11T03:12:46.401Z,34.10
2022-10-11T03:15:12.860Z,10.40
2022-10-11T03:17:39.380Z,14.23
2022-10-11T03:20:06.665Z,24.60
2022-10-11T03:22:33.130Z,11.67
2022-10-11T03:25:03.595Z,13.70
2022-10-11T03:27:30.832Z,17.80
2022-10-11T03:29:58.145Z,21.67
2022-10-11T03:32:24.952Z,12.80
2022-10-11T03:34:51.801Z,29.73
2022-10-11T03:37:18.458Z,35.77
2022-10-11T03:39:45.773Z,13.03
2022-10-11T03:42:12.840Z,10.70
2022-10-11T03:44:39.347Z,8.40
2022-10-11T03:47:06.092Z,27.23
2022-10-11T03:49:32.662Z,15.00
2022-10-11T03:52:00.037Z,18.30
2022-10-11T03:54:26.556Z,22.37
2022-10-11T03:56:53.208Z,16.07
2022-10-11T03:59:19.697Z,24.07
2022-10-11T04:01:46.192Z,16.87
2022-10-11T04:04:12.784Z,15.90
2022-10-11T04:06:39.340Z,21.30
2022-10-11T04:09:06.043Z,23.23
2022-10-11T04:11:32.771Z,17.40
2022-10-11T04:13:59.301Z,23.90
2022-10-11T04:16:25.904Z,18.20
2022-10-11T04:18:52.412Z,23.00
2022-10-11T04:21:18.901Z,23.70
2022-10-11T04:23:45.329Z,34.40
2022-10-11T04:26:11.867Z,15.10
2022-10-11T04:28:38.399Z,22.33
2022-10-11T04:31:06.611Z,13.30
2022-10-11T04:33:33.127Z,25.63
2022-10-11T04:36:00.032Z,19.23
2022-10-11T04:38:26.488Z,41.47
2022-10-11T04:40:52.985Z,21.63
2022-10-11T04:43:19.491Z,14.73
2022-10-11T04:45:46.250Z,20.52
2022-10-11T04:48:14.167Z,9.83
2022-10-11T04:50:40.656Z,13.10
2022-10-11T04:53:07.408Z,15.93
2022-10-11T04:55:33.858Z,14.23
2022-10-11T04:58:00.954Z,17.70
2022-10-11T05:00:27.490Z,22.13
2022-10-11T05:02:54.484Z,14.73
2022-10-11T05:05:21.082Z,20.17
2022-10-11T05:07:47.521Z,19.20
2022-10-11T05:10:14.583Z,11.67
2022-10-11T05:12:41.099Z,35.93
2022-10-11T05:15:08.285Z,15.70
2022-10-11T05:17:34.976Z,19.07
2022-10-11T05:20:01.490Z,25.17
2022-10-11T05:22:27.972Z,18.67
2022-10-11T05:24:54.415Z,17.80
2022-10-11T05:27:20.904Z,16.97
2022-10-11T05:29:47.397Z,37.00
2022-10-11T05:32:13.961Z,22.27
2022-10-11T05:34:40.448Z,18.47
2022-10-11T05:37:06.967Z,21.50
2022-10-11T05:39:33.649Z,19.73
2022-10-11T05:42:00.190Z,20.80
2022-10-11T05:44:26.752Z,19.57
2022-10-11T05:46:53.632Z,14.03
2022-10-11T05:49:20.067Z,20.67
2022-10-11T05:51:46.918Z,22.83
2022-10-11T05:54:13.344Z,14.07
2022-10-11T05:56:39.851Z,21.10
2022-10-11T05:59:06.330Z,23.47
2022-10-11T06:01:33.119Z,28.27
2022-10-11T06:03:59.650Z,24.80
2022-10-11T06:06:26.131Z,17.33
2022-10-11T06:08:52.582Z,27.00
2022-10-11T06:11:25.397Z,22.13
2022-10-11T06:13:56.468Z,28.17
2022-10-11T06:16:23.107Z,24.23
2022-10-11T06:18:53.010Z,13.53
2022-10-11T06:21:19.539Z,18.50
2022-10-11T06:23:49.786Z,22.13
2022-10-11T06:26:16.285Z,17.93
2022-10-11T06:28:43.377Z,22.97
2022-10-11T06:31:10.432Z,20.27
2022-10-11T06:33:37.509Z,18.17
2022-10-11T06:36:07.584Z,17.00
2022-10-11T06:38:34.710Z,20.90
2022-10-11T06:41:17.615Z,14.80
2022-10-11T06:43:44.861Z,17.20
2022-10-11T06:46:11.998Z,23.00
2022-10-11T06:48:43.457Z,27.27
2022-10-11T06:51:11.463Z,38.83
2022-10-11T06:53:38.734Z,28.67
2022-10-11T06:56:07.830Z,30.37
2022-10-11T06:58:35.102Z,21.30
2022-10-11T07:01:02.627Z,13.43
2022-10-11T07:03:29.718Z,14.73
2022-10-11T07:06:07.011Z,18.57
2022-10-11T07:08:33.972Z,23.63
2022-10-11T07:11:08.384Z,27.73
2022-10-11T07:13:35.762Z,18.03
2022-10-11T07:16:07.798Z,30.73
2022-10-11T07:18:35.243Z,19.60
2022-10-11T07:21:11.551Z,30.73
2022-10-11T07:23:38.501Z,25.53
2022-10-11T07:26:07.553Z,19.60
2022-10-11T07:28:35.801Z,20.90
2022-10-11T07:31:28.552Z,18.07
2022-10-11T07:33:55.199Z,20.43
2022-10-11T07:36:23.413Z,29.33
2022-10-11T07:38:50.410Z,14.97
2022-10-11T07:41:17.244Z,21.30
2022-10-11T07:43:44.099Z,28.53
2022-10-11T07:46:11.235Z,20.13
2022-10-11T07:48:38.253Z,15.43
2022-10-11T07:51:06.690Z,13.87
2022-10-11T07:53:38.873Z,25.83
2022-10-11T07:56:06.112Z,18.33
2022-10-11T07:58:32.875Z,29.23
2022-10-11T08:00:59.444Z,12.73
2022-10-11T08:03:25.941Z,16.63
2022-10-11T08:05:52.654Z,21.57
2022-10-11T08:08:19.456Z,17.07
2022-10-11T08:10:45.937Z,23.27
2022-10-11T08:13:12.560Z,31.93
2022-10-11T08:15:39.067Z,19.33
2022-10-11T08:18:39.974Z,26.33
2022-10-11T08:21:11.020Z,28.47
2022-10-11T08:23:37.760Z,15.70
2022-10-11T08:26:04.835Z,20.70
2022-10-11T08:28:31.588Z,22.83
2022-10-11T08:30:58.192Z,16.13
2022-10-11T08:33:26.163Z,10.93
2022-10-11T08:35:53.692Z,8.77
2022-10-11T08:38:20.443Z,32.53
2022-10-11T08:40:48.712Z,16.53
2022-10-11T08:43:31.343Z,19.80
2022-10-11T08:46:00.275Z,15.80
2022-10-11T08:48:36.057Z,12.90
2022-10-11T08:51:09.045Z,32.40
2022-10-11T08:53:58.049Z,22.33
2022-10-11T08:56:25.824Z,25.07
2022-10-11T08:59:05.349Z,18.93
2022-10-11T09:01:32.190Z,14.17
2022-10-11T09:04:02.831Z,15.57
2022-10-11T09:06:50.575Z,33.93
2022-10-11T09:09:29.684Z,15.33
2022-10-11T09:12:00.147Z,13.07
2022-10-11T09:14:47.957Z,12.20
2022-10-11T09:17:35.911Z,19.57
2022-10-11T09:20:31.426Z,22.27
2022-10-11T09:23:34.010Z,20.33
2022-10-11T09:26:07.596Z,13.80
2022-10-11T09:28:51.022Z,20.20
2022-10-11T09:31:18.030Z,25.27
2022-10-11T09:33:47.461Z,19.37
2022-10-11T09:36:26.065Z,12.60
2022-10-11T09:39:18.078Z,27.17
2022-10-11T09:41:59.171Z,15.93
2022-10-11T09:44:33.236Z,10.33
2022-10-11T09:47:00.010Z,13.87
2022-10-11T09:49:33.767Z,14.43
2022-10-11T09:52:02.451Z,16.10
2022-10-11T09:54:43.423Z,11.07
2022-10-11T09:57:34.296Z,12.00
2022-10-11T10:00:20.715Z,26.70
2022-10-11T10:02:56.341Z,20.87
2022-10-11T10:05:41.849Z,19.53
2022-10-11T10:08:11.477Z,17.40
2022-10-11T10:10:43.721Z,12.93
2022-10-11T10:13:21.031Z,19.50
2022-10-11T10:15:50.940Z,15.07
2022-10-11T10:18:22.321Z,14.03
2022-10-11T10:20:53.613Z,18.00
2022-10-11T10:23:26.079Z,14.13
2022-10-11T10:25:54.573Z,13.50
2022-10-11T10:28:25.517Z,21.07
2022-10-11T10:30:57.410Z,8.93
2022-10-11T10:33:26.456Z,10.13
2022-10-11T10:36:16.044Z,10.27
2022-10-11T10:38:51.967Z,16.50
2022-10-11T10:41:19.013Z,17.30
2022-10-11T10:43:55.977Z,22.10
2022-10-11T10:46:49.040Z,24.10
2022-10-11T10:50:20.593Z,18.47
2022-10-11T10:52:54.997Z,10.33
2022-10-11T10:55:45.274Z,8.77
2022-10-11T10:58:45.705Z,14.67
2022-10-11T11:01:28.241Z,15.70
2022-10-11T11:04:05.296Z,11.77
2022-10-11T11:06:50.159Z,15.40
2022-10-11T11:09:29.469Z,10.23
2022-10-11T11:12:07.453Z,7.50
2022-10-11T11:14:44.047Z,10.43
2022-10-11T11:17:28.265Z,7.33
2022-10-11T11:20:03.754Z,15.27
2022-10-11T11:22:42.821Z,14.50
2022-10-11T11:25:26.361Z,27.87
2022-10-11T11:28:18.825Z,24.00
2022-10-11T11:31:03.592Z,17.30
2022-10-11T11:33:39.136Z,9.70
2022-10-11T11:36:11.903Z,13.80
2022-10-11T11:38:54.031Z,9.70
2022-10-11T11:41:24.528Z,18.20
2022-10-11T11:44:27.455Z,18.37
2022-10-11T11:46:57.299Z,14.20
2022-10-11T11:49:34.891Z,16.00
2022-10-11T11:52:02.075Z,9.20
2022-10-11T11:54:44.664Z,10.43
2022-10-11T11:57:37.093Z,29.90
2022-10-11T12:00:18.226Z,16.43
2022-10-11T12:02:52.369Z,13.90
2022-10-11T12:05:29.000Z,21.67
2022-10-11T12:08:07.194Z,12.67
2022-10-11T12:10:39.565Z,7.37
2022-10-11T12:13:19.648Z,15.93
2022-10-11T12:16:10.621Z,11.80
2022-10-11T12:19:12.154Z,13.37
2022-10-11T12:21:40.287Z,13.57
2022-10-11T12:24:19.239Z,17.43
2022-10-11T12:26:55.866Z,14.67
2022-10-11T12:29:43.026Z,14.17
2022-10-11T12:32:11.285Z,13.47
2022-10-11T12:34:42.538Z,9.63
2022-10-11T12:37:18.046Z,14.60
2022-10-11T12:40:00.261Z,20.60
2022-10-11T12:42:35.067Z,15.90
2022-10-11T12:45:13.947Z,17.00
2022-10-11T12:47:47.092Z,12.43
2022-10-11T12:50:38.317Z,13.67
2022-10-11T12:53:18.615Z,13.20
2022-10-11T12:55:45.018Z,15.03
2022-10-11T12:58:38.587Z,9.83
2022-10-11T13:01:11.761Z,17.27
2022-10-11T13:03:41.256Z,7.23
2022-10-11T13:06:25.597Z,11.47
2022-10-11T13:09:04.862Z,14.33
2022-10-11T13:11:35.231Z,11.33
2022-10-11T13:14:08.689Z,12.67
2022-10-11T13:16:50.661Z,16.80
2022-10-11T13:19:17.476Z,22.23
2022-10-11T13:22:12.782Z,7.90
2022-10-11T13:24:40.797Z,18.13
2022-10-11T13:27:07.594Z,22.73
2022-10-11T13:29:37.414Z,8.50
2022-10-11T13:32:07.504Z,18.03
2022-10-11T13:34:38.585Z,16.53
2022-10-11T13:37:05.637Z,19.00
2022-10-11T13:39:36.697Z,18.37
2022-10-11T13:42:07.165Z,21.17
2022-10-11T13:44:35.454Z,14.57
2022-10-11T13:47:11.693Z,7.27
2022-10-11T13:49:39.951Z,11.00
2022-10-11T13:52:20.200Z,22.93
2022-10-11T13:55:05.897Z,25.20
2022-10-11T13:57:47.813Z,20.60
2022-10-11T14:00:20.117Z,21.30
2022-10-11T14:02:50.938Z,29.13
2022-10-11T14:05:34.203Z,16.70
2022-10-11T14:08:03.978Z,16.93
2022-10-11T14:10:30.827Z,17.07
2022-10-11T14:13:06.297Z,20.80
2022-10-11T14:15:36.172Z,18.77
2022-10-11T14:18:45.821Z,23.50
2022-10-11T14:21:30.638Z,21.97
2022-10-11T14:23:58.712Z,37.03
2022-10-11T14:26:27.048Z,32.77
2022-10-11T14:29:00.345Z,13.30
2022-10-11T14:31:27.011Z,19.97
2022-10-11T14:33:54.560Z,29.23
2022-10-11T14:36:22.886Z,18.57
2022-10-11T14:38:52.721Z,23.43
2022-10-11T14:41:19.423Z,24.93
2022-10-11T14:43:45.843Z,19.67
2022-10-11T14:46:22.519Z,18.03
2022-10-11T14:48:56.922Z,17.40
2022-10-11T14:51:26.374Z,17.80
2022-10-11T14:53:52.896Z,17.10
2022-10-11T14:56:21.619Z,25.57
2022-10-11T14:58:48.398Z,18.93
2022-10-11T15:01:15.790Z,9.90
2022-10-11T15:03:42.789Z,21.50
2022-10-11T15:06:24.690Z,18.53
2022-10-11T15:08:51.528Z,13.80
2022-10-11T15:11:20.155Z,19.43
2022-10-11T15:13:47.274Z,20.33
2022-10-11T15:16:15.568Z,18.23
2022-10-11T15:18:42.504Z,16.47
2022-10-11T15:21:13.732Z,21.70
2022-10-11T15:23:40.184Z,17.17
2022-10-11T15:26:07.030Z,16.17
2022-10-11T15:28:33.838Z,23.50
2022-10-11T15:31:00.751Z,17.73
2022-10-11T15:33:27.246Z,19.03
2022-10-11T15:35:53.834Z,21.83
2022-10-11T15:38:22.947Z,15.33
2022-10-11T15:40:50.267Z,10.80
2022-10-11T15:43:20.784Z,11.53
2022-10-11T15:45:50.345Z,10.70
2022-10-11T15:48:19.695Z,12.23
2022-10-11T15:50:46.429Z,23.83
2022-10-11T15:53:19.357Z,11.20
2022-10-11T15:55:49.587Z,15.97
2022-10-11T15:58:19.295Z,8.07
2022-10-11T16:00:47.654Z,16.27
2022-10-11T16:03:15.539Z,18.10
2022-10-11T16:05:42.545Z,20.20
2022-10-11T16:08:10.325Z,7.13
2022-10-11T16:10:37.195Z,12.70
2022-10-11T16:13:03.745Z,18.20
2022-10-11T16:15:30.538Z,20.90
2022-10-11T16:17:57.111Z,23.60
2022-10-11T16:20:25.633Z,10.73
2022-10-11T16:22:54.203Z,21.93
2022-10-11T16:25:21.315Z,17.10
2022-10-11T16:27:48.251Z,18.67
2022-10-11T16:30:16.052Z,14.43
2022-10-11T16:32:42.560Z,49.43
2022-10-11T16:35:10.476Z,15.27
2022-10-11T16:37:36.950Z,8.70
2022-10-11T16:40:05.100Z,21.07
2022-10-11T16:42:32.078Z,23.83
2022-10-11T16:44:58.877Z,22.70
2022-10-11T16:47:25.515Z,17.97
2022-10-11T16:49:51.952Z,12.10
2022-10-11T16:52:18.652Z,16.07
2022-10-11T16:54:46.634Z,11.47
2022-10-11T16:57:15.169Z,15.13
2022-10-11T16:59:41.898Z,10.67
2022-10-11T17:02:14.975Z,82.93
2022-10-11T17:04:41.484Z,62.53
2022-10-11T17:07:13.023Z,50.23
2022-10-11T17:09:43.907Z,198.20
2022-10-11T17:12:13.193Z,132.43
2022-10-11T17:14:40.957Z,154.70
2022-10-11T17:17:08.487Z,124.13
2022-10-11T17:19:35.421Z,59.53
2022-10-11T17:22:01.863Z,63.03
2022-10-11T17:24:28.487Z,151.70
2022-10-11T17:26:54.985Z,122.07
2022-10-11T17:29:22.140Z,165.77
2022-10-11T17:31:49.462Z,47.47
2022-10-11T17:34:17.097Z,20.63
2022-10-11T17:36:43.997Z,31.83
2022-10-11T17:39:16.450Z,29.93
2022-10-11T17:41:44.108Z,22.83
2022-10-11T17:44:10.963Z,22.40
2022-10-11T17:46:37.803Z,24.70
2022-10-11T17:49:05.964Z,23.07
2022-10-11T17:51:33.932Z,28.13
2022-10-11T17:54:00.390Z,22.23
2022-10-11T17:56:31.338Z,29.07
2022-10-11T17:59:00.288Z,29.40
2022-10-11T18:01:28.950Z,25.37
2022-10-11T18:04:00.559Z,29.20
2022-10-11T18:06:29.807Z,23.23
2022-10-11T18:08:57.424Z,52.90
2022-10-11T18:11:24.007Z,37.90
2022-10-11T18:13:52.703Z,25.60
2022-10-11T18:16:21.799Z,24.07
2022-10-11T18:18:48.687Z,64.57
2022-10-11T18:21:16.192Z,31.80
2022-10-11T18:23:42.653Z,38.30
2022-10-11T18:26:17.214Z,29.73
2022-10-11T18:28:44.426Z,30.03
2022-10-11T18:31:16.644Z,29.87
2022-10-11T18:33:45.788Z,25.30
2022-10-11T18:36:15.383Z,49.40
2022-10-11T18:38:46.586Z,48.50
2022-10-11T18:41:15.491Z,32.67
2022-10-11T18:43:42.302Z,29.50
2022-10-11T18:46:11.569Z,34.53
2022-10-11T18:48:46.035Z,46.23
2022-10-11T18:51:15.826Z,38.27
2022-10-11T18:53:42.604Z,47.03
2022-10-11T18:56:11.506Z,44.83
2022-10-11T18:58:39.133Z,37.10
2022-10-11T19:01:12.759Z,49.07
2022-10-11T19:03:39.516Z,35.17
2022-10-11T19:06:16.921Z,51.53
2022-10-11T19:08:44.850Z,43.73
2022-10-11T19:11:12.939Z,42.03
2022-10-11T19:13:40.030Z,39.50
2022-10-11T19:16:16.904Z,32.00
2022-10-11T19:18:44.580Z,24.63
2022-10-11T19:21:12.970Z,28.63
2022-10-11T19:23:41.753Z,46.77
2022-10-11T19:26:33.466Z,51.57
2022-10-11T19:29:15.387Z,41.10
2022-10-11T19:31:44.078Z,42.67
2022-10-11T19:34:11.867Z,34.73
2022-10-11T19:36:38.796Z,27.37
2022-10-11T19:39:06.289Z,60.67
2022-10-11T19:41:35.929Z,34.57
2022-10-11T19:44:02.822Z,49.50
2022-10-11T19:46:50.529Z,44.53
2022-10-11T19:49:17.942Z,48.07
2022-10-11T19:51:45.038Z,30.23
2022-10-11T19:54:13.657Z,38.63
2022-10-11T19:56:40.577Z,114.27
2022-10-11T19:59:07.028Z,82.77
2022-10-11T20:01:34.896Z,63.53
2022-10-11T20:04:03.966Z,43.47
2022-10-11T20:06:37.900Z,47.23
2022-10-11T20:09:29.631Z,38.10
2022-10-11T20:11:55.860Z,32.87
2022-10-11T20:14:22.504Z,28.63
2022-10-11T20:16:52.411Z,25.50
2022-10-11T20:19:18.952Z,45.27
2022-10-11T20:21:45.556Z,29.60
2022-10-11T20:24:12.375Z,24.00
2022-10-11T20:26:39.303Z,29.23
2022-10-11T20:29:06.812Z,24.17
2022-10-11T20:31:34.915Z,26.47
2022-10-11T20:34:03.415Z,26.43
2022-10-11T20:36:32.058Z,24.00
2022-10-11T20:39:00.210Z,34.70
2022-10-11T20:41:29.375Z,37.10
2022-10-11T20:43:56.903Z,34.10
2022-10-11T20:46:25.451Z,29.17
2022-10-11T20:49:04.093Z,25.40
2022-10-11T20:51:31.983Z,33.97
2022-10-11T20:53:59.023Z,28.13
2022-10-11T20:56:25.739Z,25.43
2022-10-11T20:58:54.786Z,17.60
2022-10-11T21:01:24.092Z,35.97
2022-10-11T21:03:50.952Z,31.50
2022-10-11T21:06:17.758Z,26.23
2022-10-11T21:08:44.237Z,33.83
2022-10-11T21:11:11.636Z,35.73
2022-10-11T21:13:38.550Z,38.60
2022-10-11T21:16:06.892Z,39.93
2022-10-11T21:18:33.663Z,29.13
2022-10-11T21:21:07.747Z,33.73
2022-10-11T21:23:34.905Z,24.60
2022-10-11T21:26:06.476Z,32.27
2022-10-11T21:28:34.436Z,29.97
2022-10-11T21:31:09.445Z,22.93
2022-10-11T21:33:36.804Z,37.37
2022-10-11T21:36:07.721Z,39.07
2022-10-11T21:38:35.423Z,29.97
2022-10-11T21:41:03.385Z,27.63
2022-10-11T21:43:29.992Z,34.03
2022-10-11T21:45:56.462Z,38.77
2022-10-11T21:48:22.930Z,22.37
2022-10-11T21:50:53.833Z,25.73
2022-10-11T21:53:20.993Z,16.40
2022-10-11T21:55:47.535Z,25.07
2022-10-11T21:58:13.978Z,21.70
2022-10-11T22:00:40.600Z,29.77
2022-10-11T22:03:07.307Z,28.80
2022-10-11T22:05:33.920Z,29.13
2022-10-11T22:08:00.391Z,20.17
2022-10-11T22:10:27.004Z,26.23
2022-10-11T22:12:53.899Z,21.10
2022-10-11T22:15:20.384Z,26.37
2022-10-11T22:17:47.054Z,19.23
2022-10-11T22:20:13.580Z,26.20
2022-10-11T22:22:40.010Z,26.20
2022-10-11T22:25:06.864Z,20.07
2022-10-11T22:27:33.328Z,24.93
2022-10-11T22:29:59.857Z,24.13
2022-10-11T22:32:26.635Z,14.27
2022-10-11T22:34:53.165Z,23.00
2022-10-11T22:37:19.666Z,23.93
2022-10-11T22:39:46.313Z,34.47
2022-10-11T22:42:12.804Z,18.80
2022-10-11T22:44:39.348Z,16.73
2022-10-11T22:47:05.793Z,19.50
2022-10-11T22:49:32.289Z,20.00
2022-10-11T22:51:58.798Z,28.60
2022-10-11T22:54:25.586Z,19.50
2022-10-11T22:56:52.021Z,19.90
2022-10-11T22:59:18.582Z,28.30
2022-10-11T23:01:45.036Z,18.50
2022-10-11T23:04:11.547Z,26.60
2022-10-11T23:06:38.153Z,27.50
2022-10-11T23:09:04.581Z,20.60
2022-10-11T23:11:31.206Z,23.03
2022-10-11T23:13:57.676Z,19.77
2022-10-11T23:16:24.149Z,17.93
2022-10-11T23:18:53.216Z,18.37
2022-10-11T23:21:19.831Z,13.47
2022-10-11T23:23:46.358Z,16.90
2022-10-11T23:26:15.038Z,17.40
2022-10-11T23:28:42.561Z,15.90
2022-10-11T23:31:16.705Z,15.13
2022-10-11T23:33:46.507Z,21.93
2022-10-11T23:36:21.031Z,21.13
2022-10-11T23:38:55.157Z,17.00
2022-10-11T23:41:26.123Z,16.20
2022-10-11T23:43:52.770Z,11.53
2022-10-11T23:46:19.577Z,20.90
2022-10-11T23:48:46.033Z,25.23
2022-10-11T23:51:14.152Z,18.80
2022-10-11T23:53:40.723Z,24.13
2022-10-11T23:56:07.930Z,27.17
2022-10-11T23:58:34.596Z,18.47
